sensor_id;sensor_type;location;lat;lon;timestamp;pressure;altitude;pressure_sealevel;temperature;humidity
59493;BME280;45497;43.996;22.876;2023-07-13T00:00:28;100953.66;;;27.72;49.18
59493;BME280;45497;43.996;22.876;2023-07-13T00:02:54;100962.06;;;27.76;49.08
59493;BME280;45497;43.996;22.876;2023-07-13T00:05:20;100954.97;;;27.75;49.25
59493;BME280;45497;43.996;22.876;2023-07-13T00:07:47;100963.41;;;27.78;48.69
59493;BME280;45497;43.996;22.876;2023-07-13T00:10:13;100960.41;;;27.80;48.88
59493;BME280;45497;43.996;22.876;2023-07-13T00:12:39;100959.31;;;27.86;48.54
59493;BME280;45497;43.996;22.876;2023-07-13T00:15:09;100953.00;;;27.96;48.20
59493;BME280;45497;43.996;22.876;2023-07-13T00:17:36;100962.81;;;27.97;48.35
59493;BME280;45497;43.996;22.876;2023-07-13T00:20:04;100964.22;;;27.84;48.86
59493;BME280;45497;43.996;22.876;2023-07-13T00:22:30;100962.31;;;27.79;48.83
59493;BME280;45497;43.996;22.876;2023-07-13T00:24:55;100959.34;;;27.76;49.67
59493;BME280;45497;43.996;22.876;2023-07-13T00:27:21;100961.03;;;27.67;50.16
59493;BME280;45497;43.996;22.876;2023-07-13T00:29:47;100971.94;;;27.61;50.66
59493;BME280;45497;43.996;22.876;2023-07-13T00:32:13;100973.59;;;27.52;51.54
59493;BME280;45497;43.996;22.876;2023-07-13T00:34:38;100969.50;;;27.55;51.49
59493;BME280;45497;43.996;22.876;2023-07-13T00:37:06;100961.63;;;27.53;51.90
59493;BME280;45497;43.996;22.876;2023-07-13T00:39:35;100954.00;;;27.50;52.02
59493;BME280;45497;43.996;22.876;2023-07-13T00:42:02;100959.97;;;27.57;52.34
59493;BME280;45497;43.996;22.876;2023-07-13T00:44:28;100959.72;;;27.59;52.04
59493;BME280;45497;43.996;22.876;2023-07-13T00:46:53;100953.75;;;27.46;52.70
59493;BME280;45497;43.996;22.876;2023-07-13T00:49:23;100954.03;;;27.40;53.21
59493;BME280;45497;43.996;22.876;2023-07-13T00:51:52;100956.75;;;27.45;52.94
59493;BME280;45497;43.996;22.876;2023-07-13T00:54:28;100954.81;;;27.56;52.59
59493;BME280;45497;43.996;22.876;2023-07-13T00:57:02;100957.25;;;27.57;52.58
59493;BME280;45497;43.996;22.876;2023-07-13T00:59:28;100957.53;;;27.51;53.00
59493;BME280;45497;43.996;22.876;2023-07-13T01:01:55;100958.66;;;27.44;53.36
59493;BME280;45497;43.996;22.876;2023-07-13T01:04:24;100945.06;;;27.39;53.66
59493;BME280;45497;43.996;22.876;2023-07-13T01:06:49;100942.59;;;27.43;53.22
59493;BME280;45497;43.996;22.876;2023-07-13T01:09:15;100943.13;;;27.50;53.44
59493;BME280;45497;43.996;22.876;2023-07-13T01:11:41;100946.13;;;27.49;53.42
59493;BME280;45497;43.996;22.876;2023-07-13T01:14:08;100942.88;;;27.36;53.72
59493;BME280;45497;43.996;22.876;2023-07-13T01:16:35;100954.91;;;27.30;54.46
59493;BME280;45497;43.996;22.876;2023-07-13T01:19:03;100956.81;;;27.19;54.79
59493;BME280;45497;43.996;22.876;2023-07-13T01:21:32;100949.19;;;27.16;54.87
59493;BME280;45497;43.996;22.876;2023-07-13T01:23:59;100946.19;;;27.13;55.00
59493;BME280;45497;43.996;22.876;2023-07-13T01:26:24;100963.31;;;27.13;55.01
59493;BME280;45497;43.996;22.876;2023-07-13T01:28:50;100953.56;;;27.07;55.68
59493;BME280;45497;43.996;22.876;2023-07-13T01:31:15;100949.19;;;27.16;55.05
59493;BME280;45497;43.996;22.876;2023-07-13T01:33:41;100946.16;;;27.33;54.50
59493;BME280;45497;43.996;22.876;2023-07-13T01:36:08;100939.63;;;27.39;53.89
59493;BME280;45497;43.996;22.876;2023-07-13T01:38:35;100941.50;;;27.44;53.86
59493;BME280;45497;43.996;22.876;2023-07-13T01:41:00;100942.88;;;27.46;53.75
59493;BME280;45497;43.996;22.876;2023-07-13T01:43:26;100941.47;;;27.49;53.67
59493;BME280;45497;43.996;22.876;2023-07-13T01:45:51;100943.09;;;27.55;53.51
59493;BME280;45497;43.996;22.876;2023-07-13T01:48:17;100937.38;;;27.57;53.76
59493;BME280;45497;43.996;22.876;2023-07-13T01:50:42;100930.56;;;27.54;53.52
59493;BME280;45497;43.996;22.876;2023-07-13T01:53:08;100932.75;;;27.57;53.56
59493;BME280;45497;43.996;22.876;2023-07-13T01:55:35;100932.75;;;27.57;53.33
59493;BME280;45497;43.996;22.876;2023-07-13T01:58:01;100928.63;;;27.60;53.37
59493;BME280;45497;43.996;22.876;2023-07-13T02:00:27;100927.84;;;27.59;53.28
59493;BME280;45497;43.996;22.876;2023-07-13T02:02:52;100933.81;;;27.61;53.03
59493;BME280;45497;43.996;22.876;2023-07-13T02:05:18;100944.72;;;27.61;53.33
59493;BME280;45497;43.996;22.876;2023-07-13T02:07:43;100936.56;;;27.56;53.30
59493;BME280;45497;43.996;22.876;2023-07-13T02:10:10;100936.81;;;27.60;53.45
59493;BME280;45497;43.996;22.876;2023-07-13T02:12:36;100946.09;;;27.59;53.42
59493;BME280;45497;43.996;22.876;2023-07-13T02:15:03;100947.69;;;27.60;53.06
59493;BME280;45497;43.996;22.876;2023-07-13T02:17:28;100949.63;;;27.59;52.93
59493;BME280;45497;43.996;22.876;2023-07-13T02:19:54;100943.91;;;27.56;52.96
59493;BME280;45497;43.996;22.876;2023-07-13T02:22:20;100949.38;;;27.56;53.12
59493;BME280;45497;43.996;22.876;2023-07-13T02:24:46;100946.91;;;27.54;53.13
59493;BME280;45497;43.996;22.876;2023-07-13T02:27:11;100947.44;;;27.56;53.18
59493;BME280;45497;43.996;22.876;2023-07-13T02:29:37;100951.28;;;27.55;53.03
59493;BME280;45497;43.996;22.876;2023-07-13T02:32:02;100949.38;;;27.45;53.47
59493;BME280;45497;43.996;22.876;2023-07-13T02:34:28;100955.38;;;27.48;53.38
59493;BME280;45497;43.996;22.876;2023-07-13T02:36:54;100958.09;;;27.48;53.42
59493;BME280;45497;43.996;22.876;2023-07-13T02:39:19;100960.00;;;27.47;53.50
59493;BME280;45497;43.996;22.876;2023-07-13T02:42:04;100958.13;;;27.42;53.18
59493;BME280;45497;43.996;22.876;2023-07-13T02:44:30;100959.47;;;27.45;53.44
59493;BME280;45497;43.996;22.876;2023-07-13T02:46:55;100966.56;;;27.46;53.29
59493;BME280;45497;43.996;22.876;2023-07-13T02:49:20;100965.75;;;27.40;53.62
59493;BME280;45497;43.996;22.876;2023-07-13T02:51:46;100964.13;;;27.34;53.27
59493;BME280;45497;43.996;22.876;2023-07-13T02:54:11;100969.56;;;27.34;52.95
59493;BME280;45497;43.996;22.876;2023-07-13T02:56:38;100966.59;;;27.36;53.03
59493;BME280;45497;43.996;22.876;2023-07-13T02:59:04;100971.78;;;27.27;52.67
59493;BME280;45497;43.996;22.876;2023-07-13T03:01:30;100982.66;;;27.27;52.54
59493;BME280;45497;43.996;22.876;2023-07-13T03:03:57;100964.97;;;27.19;52.59
59493;BME280;45497;43.996;22.876;2023-07-13T03:06:23;100979.66;;;27.18;52.35
59493;BME280;45497;43.996;22.876;2023-07-13T03:08:49;100975.59;;;27.11;52.39
59493;BME280;45497;43.996;22.876;2023-07-13T03:11:19;100975.31;;;27.12;52.69
59493;BME280;45497;43.996;22.876;2023-07-13T03:13:45;100978.56;;;27.14;52.44
59493;BME280;45497;43.996;22.876;2023-07-13T03:16:11;100980.50;;;27.14;52.18
59493;BME280;45497;43.996;22.876;2023-07-13T03:18:37;100984.28;;;27.07;52.57
59493;BME280;45497;43.996;22.876;2023-07-13T03:21:04;100985.41;;;26.96;53.59
59493;BME280;45497;43.996;22.876;2023-07-13T03:23:30;100986.78;;;26.83;53.96
59493;BME280;45497;43.996;22.876;2023-07-13T03:26:21;100993.53;;;26.60;54.61
59493;BME280;45497;43.996;22.876;2023-07-13T03:28:47;100980.47;;;26.57;54.43
59493;BME280;45497;43.996;22.876;2023-07-13T03:31:15;100982.94;;;26.79;54.13
59493;BME280;45497;43.996;22.876;2023-07-13T03:33:42;100975.06;;;26.83;53.84
59493;BME280;45497;43.996;22.876;2023-07-13T03:36:17;100970.72;;;26.77;53.91
59493;BME280;45497;43.996;22.876;2023-07-13T03:38:54;100961.44;;;26.83;53.70
59493;BME280;45497;43.996;22.876;2023-07-13T03:41:21;100970.19;;;26.85;53.57
59493;BME280;45497;43.996;22.876;2023-07-13T03:43:48;100973.72;;;26.96;53.31
59493;BME280;45497;43.996;22.876;2023-07-13T03:46:14;100975.06;;;27.03;53.07
59493;BME280;45497;43.996;22.876;2023-07-13T03:48:43;100975.31;;;27.07;52.88
59493;BME280;45497;43.996;22.876;2023-07-13T03:51:10;100975.31;;;27.17;52.57
59493;BME280;45497;43.996;22.876;2023-07-13T03:53:41;100984.81;;;27.15;52.66
59493;BME280;45497;43.996;22.876;2023-07-13T03:56:07;100981.56;;;27.02;52.63
59493;BME280;45497;43.996;22.876;2023-07-13T03:58:38;100985.41;;;26.91;52.90
59493;BME280;45497;43.996;22.876;2023-07-13T04:01:06;100991.66;;;26.97;52.74
59493;BME280;45497;43.996;22.876;2023-07-13T04:03:32;100982.41;;;26.98;52.57
59493;BME280;45497;43.996;22.876;2023-07-13T04:06:04;100981.03;;;27.11;52.26
59493;BME280;45497;43.996;22.876;2023-07-13T04:08:32;100982.91;;;27.25;51.96
59493;BME280;45497;43.996;22.876;2023-07-13T04:10:58;100978.28;;;27.36;51.83
59493;BME280;45497;43.996;22.876;2023-07-13T04:13:25;100981.50;;;27.49;51.76
59493;BME280;45497;43.996;22.876;2023-07-13T04:15:51;100986.34;;;27.67;51.41
59493;BME280;45497;43.996;22.876;2023-07-13T04:18:17;100984.66;;;27.81;51.16
59493;BME280;45497;43.996;22.876;2023-07-13T04:20:45;100983.00;;;27.91;50.93
59493;BME280;45497;43.996;22.876;2023-07-13T04:23:10;100978.34;;;27.96;51.05
59493;BME280;45497;43.996;22.876;2023-07-13T04:25:36;100988.09;;;28.13;51.02
59493;BME280;45497;43.996;22.876;2023-07-13T04:28:03;100996.19;;;28.23;51.48
59493;BME280;45497;43.996;22.876;2023-07-13T04:30:29;100996.91;;;28.39;51.53
59493;BME280;45497;43.996;22.876;2023-07-13T04:32:54;100995.16;;;28.58;52.01
59493;BME280;45497;43.996;22.876;2023-07-13T04:35:20;100993.16;;;28.69;51.74
59493;BME280;45497;43.996;22.876;2023-07-13T04:37:47;100993.66;;;28.76;52.22
59493;BME280;45497;43.996;22.876;2023-07-13T04:40:13;100993.34;;;28.83;52.39
59493;BME280;45497;43.996;22.876;2023-07-13T04:42:39;100998.94;;;28.97;52.43
59493;BME280;45497;43.996;22.876;2023-07-13T04:45:06;100998.06;;;29.02;51.94
59493;BME280;45497;43.996;22.876;2023-07-13T04:47:32;101000.41;;;29.13;51.27
59493;BME280;45497;43.996;22.876;2023-07-13T04:49:58;100999.31;;;29.20;51.28
59493;BME280;45497;43.996;22.876;2023-07-13T04:52:24;100990.84;;;29.21;51.05
59493;BME280;45497;43.996;22.876;2023-07-13T04:54:49;100995.59;;;29.34;50.58
59493;BME280;45497;43.996;22.876;2023-07-13T04:57:15;100995.53;;;29.40;50.30
59493;BME280;45497;43.996;22.876;2023-07-13T04:59:40;101000.84;;;29.55;49.89
59493;BME280;45497;43.996;22.876;2023-07-13T05:02:06;101008.09;;;29.65;49.89
59493;BME280;45497;43.996;22.876;2023-07-13T05:04:32;101011.53;;;29.76;49.59
59493;BME280;45497;43.996;22.876;2023-07-13T05:06:58;101011.94;;;29.88;49.41
59493;BME280;45497;43.996;22.876;2023-07-13T05:09:24;101011.22;;;30.01;49.25
59493;BME280;45497;43.996;22.876;2023-07-13T05:11:50;101013.53;;;30.13;48.87
59493;BME280;45497;43.996;22.876;2023-07-13T05:14:15;101010.25;;;30.30;48.60
59493;BME280;45497;43.996;22.876;2023-07-13T05:16:41;101018.38;;;30.40;48.24
59493;BME280;45497;43.996;22.876;2023-07-13T05:19:08;101012.53;;;30.47;48.03
59493;BME280;45497;43.996;22.876;2023-07-13T05:21:33;101018.53;;;30.63;47.72
59493;BME280;45497;43.996;22.876;2023-07-13T05:23:59;101027.28;;;30.65;47.51
59493;BME280;45497;43.996;22.876;2023-07-13T05:26:24;101011.47;;;30.62;47.39
59493;BME280;45497;43.996;22.876;2023-07-13T05:28:50;101017.53;;;30.59;47.64
59493;BME280;45497;43.996;22.876;2023-07-13T05:31:15;101023.66;;;30.69;47.25
59493;BME280;45497;43.996;22.876;2023-07-13T05:33:41;101021.91;;;30.60;47.45
59493;BME280;45497;43.996;22.876;2023-07-13T05:36:06;101022.75;;;30.74;47.20
59493;BME280;45497;43.996;22.876;2023-07-13T05:38:32;101005.34;;;30.84;46.58
59493;BME280;45497;43.996;22.876;2023-07-13T05:40:58;101015.91;;;30.91;46.68
59493;BME280;45497;43.996;22.876;2023-07-13T05:43:25;101020.72;;;30.99;46.36
59493;BME280;45497;43.996;22.876;2023-07-13T05:45:55;101018.09;;;31.08;46.59
59493;BME280;45497;43.996;22.876;2023-07-13T05:48:21;100999.47;;;31.23;46.45
59493;BME280;45497;43.996;22.876;2023-07-13T05:50:47;101008.19;;;31.25;46.26
59493;BME280;45497;43.996;22.876;2023-07-13T05:53:12;101007.81;;;31.32;46.11
59493;BME280;45497;43.996;22.876;2023-07-13T05:55:45;101007.13;;;31.40;46.25
59493;BME280;45497;43.996;22.876;2023-07-13T05:58:16;101012.16;;;31.47;45.88
59493;BME280;45497;43.996;22.876;2023-07-13T06:00:42;101001.34;;;31.56;45.90
59493;BME280;45497;43.996;22.876;2023-07-13T06:03:07;101012.72;;;31.63;45.66
59493;BME280;45497;43.996;22.876;2023-07-13T06:05:34;101004.38;;;31.68;46.00
59493;BME280;45497;43.996;22.876;2023-07-13T06:08:01;100996.88;;;31.60;46.18
59493;BME280;45497;43.996;22.876;2023-07-13T06:10:26;100997.06;;;31.63;45.46
59493;BME280;45497;43.996;22.876;2023-07-13T06:12:52;101005.91;;;31.74;45.65
59493;BME280;45497;43.996;22.876;2023-07-13T06:15:18;101001.66;;;31.82;45.43
59493;BME280;45497;43.996;22.876;2023-07-13T06:17:43;101001.72;;;31.91;45.64
59493;BME280;45497;43.996;22.876;2023-07-13T06:20:09;100992.78;;;32.13;44.36
59493;BME280;45497;43.996;22.876;2023-07-13T06:22:35;100987.19;;;32.18;44.17
59493;BME280;45497;43.996;22.876;2023-07-13T06:25:00;100994.75;;;32.21;44.41
59493;BME280;45497;43.996;22.876;2023-07-13T06:27:26;101002.56;;;32.28;43.89
59493;BME280;45497;43.996;22.876;2023-07-13T06:29:51;100989.13;;;32.40;42.00
59493;BME280;45497;43.996;22.876;2023-07-13T06:32:17;100985.44;;;32.45;41.42
59493;BME280;45497;43.996;22.876;2023-07-13T06:34:42;100980.47;;;32.47;41.83
59493;BME280;45497;43.996;22.876;2023-07-13T06:37:09;100987.13;;;32.54;41.46
59493;BME280;45497;43.996;22.876;2023-07-13T06:39:35;100982.75;;;32.53;41.99
59493;BME280;45497;43.996;22.876;2023-07-13T06:42:00;100996.50;;;32.76;41.60
59493;BME280;45497;43.996;22.876;2023-07-13T06:44:26;100994.75;;;32.80;41.07
59493;BME280;45497;43.996;22.876;2023-07-13T06:46:51;100997.94;;;32.73;41.30
59493;BME280;45497;43.996;22.876;2023-07-13T06:49:16;100990.78;;;32.95;40.90
59493;BME280;45497;43.996;22.876;2023-07-13T06:51:42;100997.66;;;33.06;40.60
59493;BME280;45497;43.996;22.876;2023-07-13T06:54:07;100984.59;;;33.12;40.45
59493;BME280;45497;43.996;22.876;2023-07-13T06:56:33;100999.19;;;33.21;40.03
59493;BME280;45497;43.996;22.876;2023-07-13T06:58:58;100993.91;;;33.33;39.13
59493;BME280;45497;43.996;22.876;2023-07-13T07:01:24;101003.72;;;33.17;38.82
59493;BME280;45497;43.996;22.876;2023-07-13T07:03:49;100996.34;;;33.04;39.28
59493;BME280;45497;43.996;22.876;2023-07-13T07:06:20;100998.03;;;33.13;39.68
59493;BME280;45497;43.996;22.876;2023-07-13T07:08:46;101009.31;;;33.43;38.72
59493;BME280;45497;43.996;22.876;2023-07-13T07:11:13;101009.28;;;33.75;38.35
59493;BME280;45497;43.996;22.876;2023-07-13T07:13:40;101015.13;;;33.90;37.86
59493;BME280;45497;43.996;22.876;2023-07-13T07:16:06;101021.13;;;34.01;37.64
59493;BME280;45497;43.996;22.876;2023-07-13T07:18:32;101031.00;;;34.11;37.73
59493;BME280;45497;43.996;22.876;2023-07-13T07:20:57;101038.81;;;34.35;37.32
59493;BME280;45497;43.996;22.876;2023-07-13T07:23:23;101044.16;;;34.23;37.20
59493;BME280;45497;43.996;22.876;2023-07-13T07:25:48;101046.91;;;34.23;36.96
59493;BME280;45497;43.996;22.876;2023-07-13T07:28:15;101038.28;;;33.98;37.21
59493;BME280;45497;43.996;22.876;2023-07-13T07:30:46;101044.97;;;34.23;37.30
59493;BME280;45497;43.996;22.876;2023-07-13T07:33:12;101042.22;;;34.23;37.06
59493;BME280;45497;43.996;22.876;2023-07-13T07:35:38;101042.38;;;34.18;37.35
59493;BME280;45497;43.996;22.876;2023-07-13T07:38:04;101046.84;;;33.97;37.46
59493;BME280;45497;43.996;22.876;2023-07-13T07:40:29;101043.63;;;34.03;36.98
59493;BME280;45497;43.996;22.876;2023-07-13T07:42:55;101040.75;;;34.26;37.44
59493;BME280;45497;43.996;22.876;2023-07-13T07:45:21;101044.78;;;34.28;36.85
59493;BME280;45497;43.996;22.876;2023-07-13T07:47:47;101046.44;;;34.38;36.96
59493;BME280;45497;43.996;22.876;2023-07-13T07:50:13;101044.16;;;34.49;36.87
59493;BME280;45497;43.996;22.876;2023-07-13T07:52:38;101042.38;;;34.53;36.03
59493;BME280;45497;43.996;22.876;2023-07-13T07:55:06;101043.00;;;34.59;35.86
59493;BME280;45497;43.996;22.876;2023-07-13T07:57:32;101037.03;;;34.65;35.96
59493;BME280;45497;43.996;22.876;2023-07-13T07:59:57;101035.53;;;34.94;35.92
59493;BME280;45497;43.996;22.876;2023-07-13T08:02:24;101021.53;;;35.26;35.92
59493;BME280;45497;43.996;22.876;2023-07-13T08:04:50;101020.03;;;35.37;35.70
59493;BME280;45497;43.996;22.876;2023-07-13T08:07:15;101013.16;;;35.52;35.49
59493;BME280;45497;43.996;22.876;2023-07-13T08:09:41;101016.06;;;35.55;35.77
59493;BME280;45497;43.996;22.876;2023-07-13T08:12:07;101014.19;;;35.77;35.22
59493;BME280;45497;43.996;22.876;2023-07-13T08:14:32;101016.00;;;35.94;35.71
59493;BME280;45497;43.996;22.876;2023-07-13T08:16:58;101013.00;;;36.08;35.20
59493;BME280;45497;43.996;22.876;2023-07-13T08:19:23;101009.38;;;36.16;34.82
59493;BME280;45497;43.996;22.876;2023-07-13T08:21:49;101017.94;;;36.23;34.71
59493;BME280;45497;43.996;22.876;2023-07-13T08:24:14;101013.34;;;36.48;33.80
59493;BME280;45497;43.996;22.876;2023-07-13T08:26:40;101009.22;;;36.54;33.67
59493;BME280;45497;43.996;22.876;2023-07-13T08:29:06;101007.03;;;36.60;33.76
59493;BME280;45497;43.996;22.876;2023-07-13T08:31:32;100994.16;;;36.64;33.82
59493;BME280;45497;43.996;22.876;2023-07-13T08:33:57;100996.44;;;36.83;33.44
59493;BME280;45497;43.996;22.876;2023-07-13T08:36:25;100994.94;;;36.98;32.79
59493;BME280;45497;43.996;22.876;2023-07-13T08:38:51;100998.88;;;36.97;33.40
59493;BME280;45497;43.996;22.876;2023-07-13T08:41:18;100998.75;;;37.06;33.20
59493;BME280;45497;43.996;22.876;2023-07-13T08:43:47;101003.19;;;37.19;32.73
59493;BME280;45497;43.996;22.876;2023-07-13T08:46:33;100988.69;;;37.22;32.67
59493;BME280;45497;43.996;22.876;2023-07-13T08:49:11;100994.44;;;37.29;32.08
59493;BME280;45497;43.996;22.876;2023-07-13T08:51:51;100996.72;;;37.40;31.78
59493;BME280;45497;43.996;22.876;2023-07-13T08:54:36;100979.13;;;37.44;31.63
59493;BME280;45497;43.996;22.876;2023-07-13T08:57:14;100960.66;;;37.48;31.39
59493;BME280;45497;43.996;22.876;2023-07-13T08:59:40;100957.53;;;37.62;31.80
59493;BME280;45497;43.996;22.876;2023-07-13T09:02:26;100959.47;;;37.86;30.98
59493;BME280;45497;43.996;22.876;2023-07-13T09:04:58;100960.63;;;37.85;31.15
59493;BME280;45497;43.996;22.876;2023-07-13T09:10:23;100944.34;;;37.96;30.09
59493;BME280;45497;43.996;22.876;2023-07-13T09:13:33;100951.13;;;38.11;30.43
59493;BME280;45497;43.996;22.876;2023-07-13T09:15:41;100954.88;;;38.19;29.91
59493;BME280;45497;43.996;22.876;2023-07-13T09:18:16;100965.59;;;38.20;30.59
59493;BME280;45497;43.996;22.876;2023-07-13T09:20:50;100958.19;;;38.24;30.70
59493;BME280;45497;43.996;22.876;2023-07-13T09:23:21;100968.69;;;38.31;30.43
59493;BME280;45497;43.996;22.876;2023-07-13T09:25:48;100957.25;;;38.33;30.12
59493;BME280;45497;43.996;22.876;2023-07-13T09:28:26;100957.28;;;38.49;29.63
59493;BME280;45497;43.996;22.876;2023-07-13T09:31:03;100959.94;;;38.57;30.16
59493;BME280;45497;43.996;22.876;2023-07-13T09:33:30;100964.13;;;38.67;29.69
59493;BME280;45497;43.996;22.876;2023-07-13T09:35:57;100944.13;;;38.74;29.29
59493;BME280;45497;43.996;22.876;2023-07-13T09:38:26;100939.03;;;38.76;29.05
59493;BME280;45497;43.996;22.876;2023-07-13T09:44:12;100921.97;;;38.90;28.47
59493;BME280;45497;43.996;22.876;2023-07-13T09:46:43;100918.88;;;38.95;28.12
59493;BME280;45497;43.996;22.876;2023-07-13T09:49:12;100904.50;;;38.89;27.87
59493;BME280;45497;43.996;22.876;2023-07-13T09:51:40;100902.56;;;38.90;27.46
59493;BME280;45497;43.996;22.876;2023-07-13T09:54:17;100898.25;;;38.92;27.23
59493;BME280;45497;43.996;22.876;2023-07-13T09:56:43;100892.72;;;39.08;26.88
59493;BME280;45497;43.996;22.876;2023-07-13T09:59:20;100896.09;;;39.17;25.95
59493;BME280;45497;43.996;22.876;2023-07-13T10:01:46;100886.16;;;39.16;25.99
59493;BME280;45497;43.996;22.876;2023-07-13T10:04:17;100886.66;;;39.03;23.58
59493;BME280;45497;43.996;22.876;2023-07-13T10:06:44;100874.53;;;39.11;22.92
59493;BME280;45497;43.996;22.876;2023-07-13T10:09:09;100891.28;;;38.83;22.51
59493;BME280;45497;43.996;22.876;2023-07-13T10:11:37;100871.81;;;38.63;22.80
59493;BME280;45497;43.996;22.876;2023-07-13T10:14:36;100880.13;;;38.79;21.91
59493;BME280;45497;43.996;22.876;2023-07-13T10:17:05;100876.34;;;38.87;22.29
59493;BME280;45497;43.996;22.876;2023-07-13T10:19:35;100883.78;;;38.67;22.40
59493;BME280;45497;43.996;22.876;2023-07-13T10:22:02;100866.44;;;38.86;22.59
59493;BME280;45497;43.996;22.876;2023-07-13T10:24:36;100854.66;;;39.25;23.24
59493;BME280;45497;43.996;22.876;2023-07-13T10:32:49;100850.63;;;39.57;22.90
59493;BME280;45497;43.996;22.876;2023-07-13T10:35:16;100850.69;;;39.61;22.45
59493;BME280;45497;43.996;22.876;2023-07-13T10:43:02;100844.03;;;39.85;22.06
59493;BME280;45497;43.996;22.876;2023-07-13T10:45:34;100845.84;;;39.78;21.36
59493;BME280;45497;43.996;22.876;2023-07-13T10:48:01;100839.16;;;39.59;21.18
59493;BME280;45497;43.996;22.876;2023-07-13T10:50:28;100837.09;;;39.75;21.43
59493;BME280;45497;43.996;22.876;2023-07-13T10:53:18;100827.56;;;39.73;21.15
59493;BME280;45497;43.996;22.876;2023-07-13T10:58:27;100830.41;;;39.96;21.98
59493;BME280;45497;43.996;22.876;2023-07-13T11:03:36;100825.22;;;39.94;20.93
59493;BME280;45497;43.996;22.876;2023-07-13T11:08:54;100821.31;;;40.22;20.58
59493;BME280;45497;43.996;22.876;2023-07-13T11:21:31;100819.06;;;39.85;19.64
59493;BME280;45497;43.996;22.876;2023-07-13T11:24:04;100810.97;;;39.96;19.47
59493;BME280;45497;43.996;22.876;2023-07-13T11:26:42;100804.78;;;39.87;19.71
59493;BME280;45497;43.996;22.876;2023-07-13T11:31:59;100808.81;;;40.09;19.94
59493;BME280;45497;43.996;22.876;2023-07-13T11:34:36;100796.75;;;40.24;19.36
59493;BME280;45497;43.996;22.876;2023-07-13T11:37:03;100806.72;;;40.25;19.05
59493;BME280;45497;43.996;22.876;2023-07-13T11:39:32;100801.94;;;40.26;20.75
59493;BME280;45497;43.996;22.876;2023-07-13T11:42:05;100801.47;;;39.78;19.48
59493;BME280;45497;43.996;22.876;2023-07-13T11:44:34;100809.94;;;39.46;19.81
59493;BME280;45497;43.996;22.876;2023-07-13T11:47:21;100805.28;;;39.50;19.89
59493;BME280;45497;43.996;22.876;2023-07-13T11:49:55;100798.47;;;39.67;19.88
59493;BME280;45497;43.996;22.876;2023-07-13T11:52:36;100810.75;;;39.85;19.52
59493;BME280;45497;43.996;22.876;2023-07-13T11:55:08;100804.78;;;39.87;19.26
59493;BME280;45497;43.996;22.876;2023-07-13T11:57:43;100801.88;;;39.80;18.92
59493;BME280;45497;43.996;22.876;2023-07-13T12:00:14;100802.03;;;39.87;19.47
59493;BME280;45497;43.996;22.876;2023-07-13T12:02:49;100789.84;;;39.91;18.98
59493;BME280;45497;43.996;22.876;2023-07-13T12:05:16;100791.03;;;40.13;19.23
59493;BME280;45497;43.996;22.876;2023-07-13T12:07:43;100805.41;;;40.19;19.19
59493;BME280;45497;43.996;22.876;2023-07-13T12:12:35;100788.06;;;40.26;19.70
59493;BME280;45497;43.996;22.876;2023-07-13T12:15:08;100784.50;;;40.25;19.32
59493;BME280;45497;43.996;22.876;2023-07-13T12:17:35;100778.78;;;40.38;19.83
59493;BME280;45497;43.996;22.876;2023-07-13T12:20:10;100778.25;;;40.32;19.00
59493;BME280;45497;43.996;22.876;2023-07-13T12:22:39;100772.53;;;40.21;19.59
59493;BME280;45497;43.996;22.876;2023-07-13T12:25:11;100762.34;;;40.29;19.59
59493;BME280;45497;43.996;22.876;2023-07-13T12:27:37;100761.56;;;40.05;19.26
59493;BME280;45497;43.996;22.876;2023-07-13T12:30:27;100770.91;;;40.20;19.74
59493;BME280;45497;43.996;22.876;2023-07-13T12:33:00;100762.84;;;40.11;19.58
59493;BME280;45497;43.996;22.876;2023-07-13T12:35:26;100765.38;;;39.97;19.68
59493;BME280;45497;43.996;22.876;2023-07-13T12:37:56;100772.25;;;39.84;19.40
59493;BME280;45497;43.996;22.876;2023-07-13T12:40:28;100768.25;;;40.04;19.03
59493;BME280;45497;43.996;22.876;2023-07-13T12:42:56;100763.50;;;40.05;19.14
59493;BME280;45497;43.996;22.876;2023-07-13T12:45:27;100758.31;;;39.80;19.75
59493;BME280;45497;43.996;22.876;2023-07-13T12:47:57;100756.13;;;40.12;20.33
59493;BME280;45497;43.996;22.876;2023-07-13T12:50:34;100754.06;;;40.32;20.00
59493;BME280;45497;43.996;22.876;2023-07-13T12:53:03;100758.09;;;40.35;20.09
59493;BME280;45497;43.996;22.876;2023-07-13T12:55:41;100743.69;;;40.29;19.67
59493;BME280;45497;43.996;22.876;2023-07-13T12:58:18;100741.41;;;40.35;19.49
59493;BME280;45497;43.996;22.876;2023-07-13T13:00:49;100747.78;;;40.36;18.73
59493;BME280;45497;43.996;22.876;2023-07-13T13:03:35;100728.28;;;40.32;17.03
59493;BME280;45497;43.996;22.876;2023-07-13T13:06:04;100728.09;;;40.21;17.97
59493;BME280;45497;43.996;22.876;2023-07-13T13:08:34;100729.94;;;40.37;18.85
59493;BME280;45497;43.996;22.876;2023-07-13T13:11:01;100728.06;;;40.44;18.72
59493;BME280;45497;43.996;22.876;2023-07-13T13:13:27;100716.91;;;40.41;18.22
59493;BME280;45497;43.996;22.876;2023-07-13T13:15:53;100729.38;;;40.27;18.64
59493;BME280;45497;43.996;22.876;2023-07-13T13:18:21;100731.94;;;40.36;18.49
59493;BME280;45497;43.996;22.876;2023-07-13T13:20:48;100726.72;;;40.35;18.96
59493;BME280;45497;43.996;22.876;2023-07-13T13:23:19;100719.69;;;40.41;18.65
59493;BME280;45497;43.996;22.876;2023-07-13T13:25:49;100719.72;;;40.44;18.25